Time;durP1;ratioP1;P1;durP2;ratioP2;P2;SDS_P1;SDS_P2;PMS_P1;PMS_P2;Temp;Humidity;BMP_temperature;BMP_pressure;BME280_temperature;BME280_humidity;BME280_pressure;Samples;Min_cycle;Max_cycle;Signal;HPM_P1;HPM_P2
2021/04/17 00:01:41;;;;;;;1.10;0.70;;;20.00;56.80;;;;;;5126160;27;20023;-41
2021/04/17 00:04:07;;;;;;;0.70;0.60;;;20.00;56.70;;;;;;5147643;27;20031;-41
2021/04/17 00:06:34;;;;;;;2.20;0.73;;;20.00;56.60;;;;;;5148378;27;20042;-42
2021/04/17 00:09:01;;;;;;;0.63;0.63;;;20.00;56.60;;;;;;5148455;27;20023;-42
2021/04/17 00:11:27;;;;;;;0.77;0.50;;;20.00;56.70;;;;;;5128726;27;20068;-41
2021/04/17 00:13:53;;;;;;;0.85;0.63;;;20.00;57.00;;;;;;5127266;27;20043;-41
2021/04/17 00:16:20;;;;;;;1.35;0.70;;;20.00;57.20;;;;;;5127514;28;20024;-41
2021/04/17 00:18:46;;;;;;;0.75;0.63;;;20.00;57.30;;;;;;5127434;28;20032;-41
2021/04/17 00:21:12;;;;;;;0.55;0.50;;;20.00;57.40;;;;;;5131183;27;20019;-41
2021/04/17 00:23:39;;;;;;;1.35;0.63;;;20.00;57.50;;;;;;5110668;27;20464;-42
2021/04/17 00:26:05;;;;;;;0.95;0.80;;;19.90;57.30;;;;;;5130714;27;20057;-42
2021/04/17 00:28:32;;;;;;;0.73;0.60;;;19.90;57.00;;;;;;5109287;27;20035;-40
2021/04/17 00:30:58;;;;;;;0.73;0.73;;;19.90;56.80;;;;;;5134014;27;20205;-40
2021/04/17 00:33:24;;;;;;;0.70;0.60;;;19.90;57.00;;;;;;5132480;27;20023;-41
2021/04/17 00:35:50;;;;;;;0.82;0.70;;;19.90;56.90;;;;;;5111116;27;20020;-40
2021/04/17 00:38:16;;;;;;;0.60;0.60;;;19.90;56.60;;;;;;5132097;27;20720;-39
2021/04/17 00:40:42;;;;;;;1.38;0.80;;;19.80;56.50;;;;;;5129915;27;20027;-41
2021/04/17 00:43:09;;;;;;;0.60;0.60;;;19.80;56.50;;;;;;5130564;27;20020;-41
2021/04/17 00:45:35;;;;;;;1.08;0.63;;;19.80;56.50;;;;;;5134341;27;20086;-41
2021/04/17 00:48:01;;;;;;;1.55;0.75;;;19.80;56.50;;;;;;5135362;27;20102;-41
2021/04/17 00:50:27;;;;;;;0.50;0.50;;;19.80;56.50;;;;;;5131864;27;20023;-41
2021/04/17 00:52:54;;;;;;;0.50;0.50;;;19.80;56.50;;;;;;5135329;27;20186;-41
2021/04/17 00:55:20;;;;;;;0.73;0.68;;;19.80;56.60;;;;;;5147241;27;20031;-41
2021/04/17 00:57:46;;;;;;;0.77;0.52;;;19.80;56.80;;;;;;5147153;27;20023;-41
2021/04/17 01:00:13;;;;;;;0.70;0.70;;;19.80;56.90;;;;;;5147290;27;20031;-41
2021/04/17 01:02:53;;;;;;;0.95;0.75;;;19.80;57.10;;;;;;5147264;27;20019;-40
2021/04/17 01:05:19;;;;;;;0.50;0.50;;;19.80;57.60;;;;;;5144966;27;20038;-41
2021/04/17 01:07:47;;;;;;;0.95;0.70;;;19.80;58.30;;;;;;5111451;27;20118;-42
2021/04/17 01:10:44;;;;;;;0.80;0.68;;;19.80;57.60;;;;;;5119134;28;20038;-41
2021/04/17 01:13:10;;;;;;;0.60;0.60;;;19.70;57.20;;;;;;5125950;28;20052;-42
2021/04/17 01:15:37;;;;;;;0.65;0.65;;;19.70;57.00;;;;;;5092622;28;20032;-42
2021/04/17 01:18:03;;;;;;;2.63;0.77;;;19.70;57.00;;;;;;5121307;28;20091;-41
2021/04/17 01:20:46;;;;;;;0.85;0.60;;;19.70;56.90;;;;;;5090767;27;20024;-42
2021/04/17 01:23:31;;;;;;;0.88;0.70;;;19.70;56.90;;;;;;5109353;27;20071;-40
2021/04/17 01:26:17;;;;;;;0.88;0.65;;;19.70;56.90;;;;;;5130386;27;20052;-41
2021/04/17 01:28:48;;;;;;;0.57;0.55;;;19.60;57.00;;;;;;5130697;27;20038;-40
2021/04/17 01:31:15;;;;;;;0.90;0.60;;;19.60;57.10;;;;;;5109263;27;20453;-39
2021/04/17 01:33:46;;;;;;;1.00;0.68;;;19.60;57.10;;;;;;5132382;27;20042;-41
2021/04/17 01:36:13;;;;;;;1.35;0.60;;;19.60;57.20;;;;;;5106062;27;20015;-40
2021/04/17 01:38:55;;;;;;;1.40;0.70;;;19.60;57.30;;;;;;5130992;27;20026;-41
2021/04/17 01:41:26;;;;;;;0.80;0.65;;;19.60;57.50;;;;;;5134466;27;20027;-40
2021/04/17 01:43:53;;;;;;;1.50;0.63;;;19.60;57.70;;;;;;5129691;27;20038;-40
2021/04/17 01:46:24;;;;;;;1.17;0.88;;;19.60;57.40;;;;;;5129332;27;20034;-40
2021/04/17 01:48:56;;;;;;;0.73;0.70;;;19.50;57.50;;;;;;5102157;27;20142;-40
2021/04/17 01:51:23;;;;;;;2.15;0.90;;;19.50;57.70;;;;;;5109658;28;20031;-40
2021/04/17 01:53:49;;;;;;;0.90;0.80;;;19.50;57.60;;;;;;5123323;27;20027;-40
2021/04/17 01:56:15;;;;;;;1.23;0.80;;;19.50;57.70;;;;;;5110283;27;20027;-42
2021/04/17 01:58:41;;;;;;;0.75;0.70;;;19.50;57.70;;;;;;5110475;27;20031;-41
2021/04/17 02:01:08;;;;;;;0.80;0.70;;;19.50;57.70;;;;;;5127553;27;20027;-41
2021/04/17 02:03:35;;;;;;;1.05;0.70;;;19.50;57.70;;;;;;5145871;27;20031;-41
2021/04/17 02:06:01;;;;;;;0.95;0.82;;;19.50;57.70;;;;;;5145642;27;20122;-41
2021/04/17 02:08:27;;;;;;;1.30;0.85;;;19.40;57.60;;;;;;5145580;27;20031;-40
2021/04/17 02:10:53;;;;;;;1.00;0.90;;;19.40;57.60;;;;;;5112356;28;20087;-40
2021/04/17 02:13:20;;;;;;;1.10;0.82;;;19.40;57.50;;;;;;5125103;28;20055;-40
2021/04/17 02:15:46;;;;;;;1.30;0.97;;;19.40;57.40;;;;;;5124246;28;20027;-42
2021/04/17 02:18:21;;;;;;;1.10;0.70;;;19.40;57.60;;;;;;5106460;28;20077;-40
2021/04/17 02:21:01;;;;;;;1.20;0.98;;;19.40;57.60;;;;;;5108417;27;20099;-39
2021/04/17 02:23:28;;;;;;;1.10;1.00;;;19.40;57.40;;;;;;5094503;27;20027;-38
2021/04/17 02:25:55;;;;;;;;;;;19.40;57.30;;;;;;5107312;27;20031;-39
2021/04/17 02:28:21;;;;;;;1.23;0.93;;;19.30;56.80;;;;;;5106499;27;19915;-39
2021/04/17 02:30:47;;;;;;;1.52;1.08;;;19.30;57.10;;;;;;5132570;27;20026;-39
2021/04/17 02:33:13;;;;;;;0.85;0.82;;;19.30;57.30;;;;;;5132128;27;20031;-39
2021/04/17 02:35:39;;;;;;;1.27;0.85;;;19.30;57.10;;;;;;5130442;27;20128;-40
2021/04/17 02:38:05;;;;;;;1.38;1.27;;;19.30;57.00;;;;;;5131616;27;20027;-39
2021/04/17 02:40:31;;;;;;;1.63;1.00;;;19.30;57.20;;;;;;5125801;27;20034;-39
2021/04/17 02:42:58;;;;;;;1.50;1.20;;;19.30;56.90;;;;;;5127866;27;20077;-38
2021/04/17 02:45:24;;;;;;;1.95;1.20;;;19.30;57.60;;;;;;5129367;27;20020;-39
2021/04/17 02:47:50;;;;;;;1.35;1.10;;;19.20;57.00;;;;;;5127365;27;20058;-39
2021/04/17 02:50:16;;;;;;;2.35;1.20;;;19.20;57.30;;;;;;5130203;27;20398;-39
2021/04/17 02:52:43;;;;;;;1.25;1.15;;;19.20;57.10;;;;;;5131463;27;20023;-39
2021/04/17 02:55:09;;;;;;;1.85;1.30;;;19.20;57.10;;;;;;5144414;27;20054;-39
2021/04/17 02:57:36;;;;;;;1.83;1.37;;;19.20;57.20;;;;;;5144597;27;20099;-39
2021/04/17 03:00:04;;;;;;;1.30;1.20;;;19.20;57.10;;;;;;5144752;27;20284;-41
2021/04/17 03:02:30;;;;;;;2.10;1.20;;;19.20;57.10;;;;;;5144778;27;20038;-40
2021/04/17 03:04:56;;;;;;;3.03;1.30;;;19.20;57.10;;;;;;5144533;27;20399;-39
2021/04/17 03:07:23;;;;;;;1.48;1.30;;;19.10;57.10;;;;;;5144455;27;20483;-40
2021/04/17 03:09:49;;;;;;;1.90;1.40;;;19.10;57.00;;;;;;5138780;27;20392;-41
2021/04/17 03:12:15;;;;;;;1.38;1.25;;;19.10;57.00;;;;;;5123463;28;20103;-41
2021/04/17 03:14:41;;;;;;;1.60;1.33;;;19.10;56.90;;;;;;5105148;28;20106;-40
2021/04/17 03:17:08;;;;;;;2.03;1.33;;;19.10;56.90;;;;;;5123920;28;20047;-40
2021/04/17 03:19:35;;;;;;;1.45;1.13;;;19.10;56.90;;;;;;5123887;28;20055;-40
2021/04/17 03:22:01;;;;;;;1.55;1.17;;;19.10;56.90;;;;;;5131345;27;20031;-40
2021/04/17 03:24:28;;;;;;;2.28;1.33;;;19.10;56.90;;;;;;5123495;28;20059;-40
2021/04/17 03:26:54;;;;;;;1.52;1.40;;;19.00;56.90;;;;;;5123848;28;20092;-40
2021/04/17 03:29:20;;;;;;;2.40;1.40;;;19.00;57.00;;;;;;5123738;28;20041;-41
2021/04/17 03:31:46;;;;;;;1.83;1.20;;;19.00;57.00;;;;;;5123768;28;20035;-40
2021/04/17 03:34:13;;;;;;;1.40;1.30;;;19.00;57.10;;;;;;5123818;28;20176;-40
2021/04/17 03:36:39;;;;;;;1.77;1.38;;;19.00;57.10;;;;;;5123218;27;20020;-42
2021/04/17 03:39:05;;;;;;;1.98;1.50;;;19.00;57.20;;;;;;5140311;27;20063;-40
2021/04/17 03:41:31;;;;;;;1.83;1.60;;;19.00;57.20;;;;;;5138159;27;20019;-41
2021/04/17 03:43:58;;;;;;;3.10;1.50;;;19.00;57.30;;;;;;5135959;27;20051;-40
2021/04/17 03:46:24;;;;;;;3.63;1.45;;;18.90;57.20;;;;;;5135248;27;20412;-40
2021/04/17 03:48:50;;;;;;;1.85;1.50;;;18.90;57.20;;;;;;5130334;28;20058;-40
2021/04/17 03:51:16;;;;;;;2.22;1.50;;;18.90;57.20;;;;;;5138974;27;20046;-40
2021/04/17 03:53:42;;;;;;;2.20;1.60;;;18.90;57.20;;;;;;5141399;27;20043;-39
2021/04/17 03:56:08;;;;;;;1.23;1.13;;;18.90;57.10;;;;;;5139286;27;20031;-39
2021/04/17 03:58:35;;;;;;;2.38;1.75;;;18.90;57.20;;;;;;5140937;27;20254;-40
2021/04/17 04:01:01;;;;;;;2.72;1.85;;;18.90;57.20;;;;;;5141335;27;20049;-40
2021/04/17 04:03:27;;;;;;;2.28;1.70;;;18.90;57.10;;;;;;5145640;27;20153;-40
2021/04/17 04:05:53;;;;;;;1.83;1.50;;;18.90;57.20;;;;;;5141171;27;20012;-40
2021/04/17 04:08:19;;;;;;;3.50;1.73;;;18.90;57.30;;;;;;5136943;27;20103;-40
2021/04/17 04:10:46;;;;;;;1.95;1.70;;;18.80;57.20;;;;;;5141610;27;20027;-42
2021/04/17 04:13:12;;;;;;;1.98;1.77;;;18.80;57.20;;;;;;5141754;27;20054;-39
2021/04/17 04:15:38;;;;;;;3.38;2.08;;;18.80;57.30;;;;;;5133232;27;20030;-40
2021/04/17 04:18:04;;;;;;;2.53;1.95;;;18.80;57.20;;;;;;5135842;27;20027;-41
2021/04/17 04:20:30;;;;;;;2.53;1.88;;;18.80;57.30;;;;;;5138818;27;20103;-39
2021/04/17 04:23:01;;;;;;;3.40;1.90;;;18.80;57.30;;;;;;5117320;28;20024;-40
2021/04/17 04:25:27;;;;;;;2.72;1.90;;;18.80;57.40;;;;;;5145179;27;20047;-40
2021/04/17 04:27:54;;;;;;;2.15;1.88;;;18.70;57.30;;;;;;5137897;27;20162;-40
2021/04/17 04:30:20;;;;;;;3.13;2.10;;;18.70;57.40;;;;;;5139854;27;20028;-39
2021/04/17 04:32:46;;;;;;;2.80;2.30;;;18.70;57.30;;;;;;5136940;27;20038;-40
2021/04/17 04:35:13;;;;;;;2.38;2.03;;;18.70;57.40;;;;;;5136308;27;20773;-40
2021/04/17 04:37:39;;;;;;;2.78;1.58;;;18.70;57.60;;;;;;5140797;27;20487;-40
2021/04/17 04:40:06;;;;;;;2.70;2.10;;;18.70;57.40;;;;;;5136984;27;20028;-40
2021/04/17 04:42:33;;;;;;;2.95;2.03;;;18.70;57.50;;;;;;5136696;27;20026;-41
2021/04/17 04:45:00;;;;;;;2.77;2.17;;;18.70;57.40;;;;;;5136771;27;20035;-40
2021/04/17 04:47:26;;;;;;;2.03;1.83;;;18.70;57.50;;;;;;5143163;27;20032;-40
2021/04/17 04:49:52;;;;;;;2.80;2.25;;;18.60;57.40;;;;;;5132300;27;20035;-39
2021/04/17 04:52:18;;;;;;;4.05;1.92;;;18.60;57.30;;;;;;5138074;27;20566;-39
2021/04/17 04:54:44;;;;;;;3.08;2.40;;;18.60;57.50;;;;;;5138654;27;20022;-40
2021/04/17 04:57:11;;;;;;;3.67;2.40;;;18.60;57.50;;;;;;5146726;27;20058;-40
2021/04/17 04:59:37;;;;;;;2.60;1.98;;;18.60;57.60;;;;;;5127346;27;20031;-40
2021/04/17 05:02:03;;;;;;;3.05;2.00;;;18.60;57.50;;;;;;5126682;27;20532;-40
2021/04/17 05:04:30;;;;;;;2.85;2.28;;;18.60;57.50;;;;;;5114827;27;20035;-41
2021/04/17 05:06:56;;;;;;;3.87;2.80;;;18.60;57.60;;;;;;5125730;28;20019;-40
2021/04/17 05:09:22;;;;;;;3.70;2.63;;;18.60;57.70;;;;;;5131724;27;20106;-39
2021/04/17 05:11:48;;;;;;;2.67;2.20;;;18.60;57.50;;;;;;5125143;28;20050;-40
2021/04/17 05:14:14;;;;;;;3.08;2.17;;;18.50;57.70;;;;;;5128055;27;20043;-40
2021/04/17 05:16:40;;;;;;;2.90;2.40;;;18.50;57.50;;;;;;5141538;27;20030;-40
2021/04/17 05:19:06;;;;;;;3.60;2.75;;;18.50;57.70;;;;;;5133068;27;20471;-39
2021/04/17 05:21:33;;;;;;;2.55;2.25;;;18.50;57.70;;;;;;5130080;27;20036;-40
2021/04/17 05:23:59;;;;;;;3.60;2.60;;;18.50;57.80;;;;;;5131710;27;20434;-40
2021/04/17 05:26:26;;;;;;;3.15;2.65;;;18.50;57.70;;;;;;5135979;27;20035;-40
2021/04/17 05:28:52;;;;;;;3.67;2.88;;;18.50;57.60;;;;;;5132498;27;20034;-39
2021/04/17 05:31:18;;;;;;;3.50;2.65;;;18.50;57.70;;;;;;5137843;27;20030;-39
2021/04/17 05:33:44;;;;;;;4.28;2.58;;;18.50;57.70;;;;;;5141682;27;20034;-40
2021/04/17 05:36:10;;;;;;;3.55;2.92;;;18.40;57.80;;;;;;5145228;27;20029;-40
2021/04/17 05:38:37;;;;;;;3.88;2.85;;;18.40;57.70;;;;;;5138002;27;20024;-40
2021/04/17 05:41:03;;;;;;;3.78;2.85;;;18.40;57.80;;;;;;5134253;27;20034;-40
2021/04/17 05:43:29;;;;;;;3.83;2.70;;;18.50;57.80;;;;;;5123070;27;20027;-39
2021/04/17 05:45:55;;;;;;;3.10;2.67;;;18.40;57.70;;;;;;5136687;27;20055;-39
2021/04/17 05:48:22;;;;;;;4.32;2.67;;;18.40;57.80;;;;;;5137846;27;20039;-40
2021/04/17 05:50:48;;;;;;;4.22;3.00;;;18.40;57.90;;;;;;5137964;27;20683;-40
2021/04/17 05:53:14;;;;;;;3.97;3.17;;;18.40;57.80;;;;;;5121950;27;20027;-39
2021/04/17 05:55:40;;;;;;;3.35;2.85;;;18.30;58.00;;;;;;5135653;27;20026;-40
2021/04/17 05:58:07;;;;;;;3.72;2.95;;;18.30;58.20;;;;;;5136859;27;20106;-40
2021/04/17 06:00:33;;;;;;;5.20;3.20;;;18.30;57.90;;;;;;5127871;27;20047;-40
2021/04/17 06:03:01;;;;;;;3.50;2.92;;;18.40;58.10;;;;;;5124995;28;20020;-40
2021/04/17 06:05:28;;;;;;;4.53;3.30;;;18.30;58.00;;;;;;5125145;28;20039;-39
2021/04/17 06:07:54;;;;;;;3.38;3.05;;;18.30;57.90;;;;;;5124496;28;20039;-40
2021/04/17 06:10:20;;;;;;;4.53;3.25;;;18.30;58.00;;;;;;5134787;27;20027;-41
2021/04/17 06:12:47;;;;;;;4.00;3.05;;;18.30;58.00;;;;;;5145254;27;20110;-40
2021/04/17 06:15:13;;;;;;;3.45;2.92;;;18.30;58.20;;;;;;5145331;27;20042;-40
2021/04/17 06:17:39;;;;;;;3.42;3.05;;;18.30;58.00;;;;;;5141785;27;20916;-39
2021/04/17 06:20:06;;;;;;;5.72;3.17;;;18.30;58.20;;;;;;5124588;28;20031;-39
2021/04/17 06:22:33;;;;;;;4.20;3.30;;;18.30;58.00;;;;;;5116905;27;20026;-41
2021/04/17 06:24:59;;;;;;;4.13;3.40;;;18.30;58.20;;;;;;5144612;27;20038;-40
2021/04/17 06:27:25;;;;;;;4.00;3.35;;;18.20;58.10;;;;;;5144892;27;20043;-41
2021/04/17 06:29:51;;;;;;;4.65;3.35;;;18.20;58.10;;;;;;5145281;27;20080;-41
2021/04/17 06:32:18;;;;;;;3.90;3.25;;;18.20;58.10;;;;;;5145062;27;20110;-40
2021/04/17 06:34:44;;;;;;;4.00;3.10;;;18.20;58.30;;;;;;5145144;27;20023;-40
2021/04/17 06:37:10;;;;;;;4.80;3.20;;;18.20;58.30;;;;;;5144908;27;20027;-40
2021/04/17 06:39:36;;;;;;;6.00;3.28;;;18.20;58.30;;;;;;5140872;27;20046;-40
2021/04/17 06:42:03;;;;;;;4.25;3.63;;;18.20;58.30;;;;;;5123473;28;20049;-40
2021/04/17 06:44:30;;;;;;;4.82;3.30;;;18.20;58.40;;;;;;5116562;27;20091;-40
2021/04/17 06:46:56;;;;;;;3.58;3.00;;;18.20;58.30;;;;;;5109435;27;20031;-40
2021/04/17 06:49:22;;;;;;;4.07;3.42;;;18.20;58.40;;;;;;5126082;27;20065;-39
2021/04/17 06:51:49;;;;;;;4.93;3.58;;;18.10;58.30;;;;;;5115785;27;20049;-39
2021/04/17 06:54:21;;;;;;;4.43;3.47;;;18.10;58.30;;;;;;5112086;27;20531;-40
2021/04/17 06:56:49;;;;;;;5.32;3.70;;;18.10;58.40;;;;;;5108416;27;20031;-39
2021/04/17 06:59:15;;;;;;;3.90;3.50;;;18.10;58.30;;;;;;5129778;27;20121;-40
2021/04/17 07:01:41;;;;;;;4.07;3.50;;;18.10;58.30;;;;;;5129132;27;20073;-39
2021/04/17 07:04:07;;;;;;;4.47;3.50;;;18.10;58.50;;;;;;5128985;27;20023;-40
2021/04/17 07:06:34;;;;;;;5.13;3.50;;;18.10;58.40;;;;;;5133867;27;20031;-40
2021/04/17 07:09:00;;;;;;;4.97;3.70;;;18.10;58.50;;;;;;5126186;27;20095;-39
2021/04/17 07:11:26;;;;;;;4.97;3.60;;;18.10;58.50;;;;;;5129231;27;20046;-39
2021/04/17 07:14:08;;;;;;;5.28;3.72;;;18.10;58.60;;;;;;5133352;27;20027;-40
2021/04/17 07:17:01;;;;;;;4.65;3.95;;;18.10;58.60;;;;;;5130461;27;20015;-40
2021/04/17 07:19:46;;;;;;;4.50;3.75;;;18.10;58.80;;;;;;5127481;27;20050;-39
2021/04/17 07:22:19;;;;;;;5.70;3.92;;;18.00;58.70;;;;;;5119529;27;20020;-39
2021/04/17 07:24:46;;;;;;;4.97;3.60;;;18.00;58.70;;;;;;5111899;28;20123;-40
2021/04/17 07:27:43;;;;;;;5.30;3.97;;;18.00;58.70;;;;;;5123370;28;20035;-40
2021/04/17 07:30:26;;;;;;;5.75;4.00;;;18.00;58.70;;;;;;5123542;28;20032;-40
2021/04/17 07:33:22;;;;;;;5.22;4.10;;;18.00;58.70;;;;;;5123339;28;20134;-40
2021/04/17 07:35:54;;;;;;;4.38;3.50;;;18.00;58.80;;;;;;5105571;28;20040;-40
2021/04/17 07:38:40;;;;;;;6.00;3.95;;;17.90;58.80;;;;;;5122974;28;20171;-40
2021/04/17 07:41:13;;;;;;;6.32;4.35;;;17.90;59.40;;;;;;5139769;28;20015;-40
2021/04/17 07:43:59;;;;;;;5.78;4.10;;;18.00;58.90;;;;;;5126098;28;20393;-40
2021/04/17 07:46:28;;;;;;;4.88;4.00;;;17.90;58.90;;;;;;5123844;28;20027;-38
2021/04/17 07:49:15;;;;;;;4.22;3.80;;;17.90;58.80;;;;;;5123112;28;20038;-40
2021/04/17 07:52:10;;;;;;;4.07;3.60;;;17.90;58.90;;;;;;5125894;28;20110;-40
2021/04/17 07:54:37;;;;;;;5.90;3.83;;;17.90;58.90;;;;;;5104145;28;20088;-39
2021/04/17 07:57:11;;;;;;;5.38;4.15;;;17.90;58.90;;;;;;5126051;28;20491;-40
2021/04/17 07:59:38;;;;;;;4.40;3.97;;;17.90;59.00;;;;;;5107003;28;20094;-38
2021/04/17 08:02:05;;;;;;;5.60;4.35;;;17.90;59.00;;;;;;5131057;28;20045;-38
2021/04/17 08:04:31;;;;;;;4.78;3.97;;;17.90;58.90;;;;;;5129236;28;20031;-40
2021/04/17 08:06:58;;;;;;;5.35;4.35;;;17.90;59.00;;;;;;5129214;28;20140;-39
2021/04/17 08:09:25;;;;;;;;;;;17.90;59.10;;;;;;5126133;28;20087;-40
2021/04/17 08:11:55;;;;;;;4.75;3.50;;;17.80;59.00;;;;;;5124179;28;20405;-41
2021/04/17 08:14:23;;;;;;;4.70;4.15;;;17.80;59.10;;;;;;5130023;28;20030;-40
2021/04/17 08:16:49;;;;;;;;;;;17.80;59.20;;;;;;5128077;28;20048;-39
2021/04/17 08:19:16;;;;;;;5.25;4.10;;;17.80;59.30;;;;;;5128650;28;19911;-40
2021/04/17 08:21:42;;;;;;;6.20;4.07;;;17.80;59.20;;;;;;5123431;28;20024;-40
2021/04/17 08:24:09;;;;;;;6.50;4.30;;;17.80;59.30;;;;;;5124576;28;20061;-40
2021/04/17 08:26:35;;;;;;;5.80;4.20;;;17.70;59.20;;;;;;5108361;28;20038;-40
2021/04/17 08:29:02;;;;;;;5.68;4.32;;;17.80;59.30;;;;;;5091527;28;20071;-39
2021/04/17 08:31:33;;;;;;;4.40;3.80;;;17.80;59.40;;;;;;5108186;28;20028;-40
2021/04/17 08:34:21;;;;;;;4.60;3.83;;;17.80;59.30;;;;;;5126806;28;20031;-40
2021/04/17 08:37:08;;;;;;;5.22;4.22;;;17.80;59.20;;;;;;5126439;28;20361;-41
2021/04/17 08:39:34;;;;;;;5.18;4.20;;;17.80;59.20;;;;;;5132651;27;20031;-40
2021/04/17 08:42:08;;;;;;;4.78;4.00;;;17.80;59.30;;;;;;5126541;28;20023;-41
2021/04/17 08:44:44;;;;;;;5.32;3.97;;;17.80;59.30;;;;;;5126572;28;20023;-40
2021/04/17 08:47:12;;;;;;;4.65;4.13;;;17.80;59.30;;;;;;5126434;28;20032;-39
2021/04/17 08:49:39;;;;;;;5.15;4.18;;;17.70;59.30;;;;;;5126512;28;20123;-39
2021/04/17 08:52:22;;;;;;;5.57;4.10;;;17.70;59.40;;;;;;5127990;27;20068;-41
2021/04/17 08:54:54;;;;;;;5.82;4.28;;;17.70;59.40;;;;;;5146604;27;20023;-39
2021/04/17 08:57:21;;;;;;;5.03;4.15;;;17.70;59.40;;;;;;5146818;27;20057;-42
2021/04/17 08:59:58;;;;;;;5.07;4.17;;;17.70;59.40;;;;;;5144228;27;20075;-40
2021/04/17 09:02:25;;;;;;;6.32;4.55;;;17.70;59.50;;;;;;5145576;27;20060;-40
2021/04/17 09:05:08;;;;;;;6.93;4.60;;;17.70;59.50;;;;;;5146771;27;20020;-39
2021/04/17 09:07:36;;;;;;;5.45;4.13;;;17.70;59.40;;;;;;5146363;27;20491;-39
2021/04/17 09:10:24;;;;;;;5.18;3.92;;;17.60;59.40;;;;;;5139001;27;20026;-40
2021/04/17 09:13:09;;;;;;;5.87;4.27;;;17.70;59.50;;;;;;5125619;28;20054;-40
2021/04/17 09:15:50;;;;;;;5.68;4.72;;;17.60;59.50;;;;;;5125733;28;20051;-41
2021/04/17 09:18:49;;;;;;;5.90;4.47;;;17.60;59.60;;;;;;5125893;28;20023;-40
2021/04/17 09:21:15;;;;;;;5.22;4.18;;;17.70;59.60;;;;;;5022459;28;20138;-40
2021/04/17 09:23:44;;;;;;;6.60;4.30;;;17.60;59.60;;;;;;5022345;28;20546;-40
2021/04/17 09:26:32;;;;;;;5.57;4.43;;;17.60;59.80;;;;;;5022030;28;20033;-39
2021/04/17 09:29:00;;;;;;;6.63;4.40;;;17.60;59.60;;;;;;5022345;28;20041;-38
2021/04/17 09:31:26;;;;;;;6.85;4.45;;;17.60;59.70;;;;;;5022345;28;20068;-40
2021/04/17 09:34:08;;;;;;;5.90;4.45;;;17.60;59.70;;;;;;5022369;28;20692;-41
2021/04/17 09:36:34;;;;;;;6.40;4.57;;;17.60;59.70;;;;;;5021117;28;20052;-40
2021/04/17 09:39:00;;;;;;;5.13;4.22;;;17.60;59.80;;;;;;5021903;28;20030;-39
2021/04/17 09:41:45;;;;;;;5.80;4.47;;;17.60;59.80;;;;;;5022068;28;20022;-40
2021/04/17 09:44:12;;;;;;;4.90;4.13;;;17.60;59.70;;;;;;5022131;28;20041;-39
2021/04/17 09:46:38;;;;;;;4.50;4.05;;;17.60;59.70;;;;;;5021791;28;20034;-39
2021/04/17 09:49:05;;;;;;;5.05;4.28;;;17.60;59.80;;;;;;5022051;28;20042;-40
2021/04/17 09:51:31;;;;;;;6.38;4.82;;;17.50;59.80;;;;;;5022027;28;20034;-39
2021/04/17 09:54:03;;;;;;;5.43;4.50;;;17.50;59.80;;;;;;5021336;28;20050;-39
2021/04/17 09:56:30;;;;;;;6.28;4.50;;;17.50;59.80;;;;;;5057293;28;20038;-40
2021/04/17 09:58:57;;;;;;;5.85;4.35;;;17.50;59.90;;;;;;5125024;28;20095;-39
2021/04/17 10:01:23;;;;;;;5.85;4.00;;;17.50;59.90;;;;;;5125021;28;20396;-40
2021/04/17 10:03:54;;;;;;;5.25;4.07;;;17.50;59.90;;;;;;5125101;28;20032;-40
2021/04/17 10:06:33;;;;;;;5.30;4.03;;;17.50;59.90;;;;;;5124411;28;20051;-41
2021/04/17 10:09:10;;;;;;;5.22;4.07;;;17.50;59.90;;;;;;5124769;28;20024;-40
2021/04/17 10:11:37;;;;;;;5.70;4.30;;;17.50;60.00;;;;;;5103969;28;20090;-39
2021/04/17 10:14:04;;;;;;;6.53;4.55;;;17.50;60.00;;;;;;5104461;28;20047;-40
2021/04/17 10:16:33;;;;;;;;;;;17.50;59.90;;;;;;5103432;28;20031;-40
2021/04/17 10:19:00;;;;;;;4.85;3.83;;;17.40;59.90;;;;;;5109169;28;19908;-40
2021/04/17 10:21:34;;;;;;;5.28;4.18;;;17.50;60.20;;;;;;5134915;27;20023;-41
2021/04/17 10:24:21;;;;;;;5.88;4.18;;;17.50;60.20;;;;;;5108445;28;20031;-39
2021/04/17 10:27:07;;;;;;;7.32;4.22;;;17.40;60.10;;;;;;5124195;28;20027;-41
2021/04/17 10:29:46;;;;;;;5.18;4.13;;;17.50;60.20;;;;;;5124607;28;20023;-41
2021/04/17 10:32:21;;;;;;;5.82;4.50;;;17.40;60.00;;;;;;5132613;27;20015;-40
2021/04/17 10:34:55;;;;;;;4.65;4.10;;;17.40;60.20;;;;;;5144765;27;20019;-41
2021/04/17 10:37:24;;;;;;;6.57;4.78;;;17.40;60.30;;;;;;5144725;27;20031;-40
2021/04/17 10:40:11;;;;;;;5.30;4.30;;;17.40;60.20;;;;;;5138915;27;20024;-39
2021/04/17 10:43:01;;;;;;;5.13;4.15;;;17.40;60.10;;;;;;5123980;28;20091;-40
2021/04/17 10:45:30;;;;;;;5.28;4.28;;;17.40;60.30;;;;;;5124275;28;20728;-40
2021/04/17 10:48:06;;;;;;;5.88;4.35;;;17.30;60.30;;;;;;5123703;28;20119;-40
2021/04/17 10:50:34;;;;;;;4.68;3.90;;;17.40;60.50;;;;;;5126777;27;20108;-40
2021/04/17 10:53:14;;;;;;;5.90;4.53;;;17.40;60.50;;;;;;5140291;27;20062;-41
2021/04/17 10:55:48;;;;;;;6.15;4.20;;;17.40;60.30;;;;;;5144749;27;20023;-40
2021/04/17 10:58:31;;;;;;;4.97;4.25;;;17.40;60.20;;;;;;5144109;27;20064;-39
2021/04/17 11:01:05;;;;;;;4.78;4.13;;;17.40;60.20;;;;;;5127569;27;20031;-40
2021/04/17 11:03:42;;;;;;;4.88;4.15;;;17.40;60.10;;;;;;5144209;27;20030;-39
2021/04/17 11:06:16;;;;;;;5.25;4.13;;;17.40;60.10;;;;;;5125871;27;20027;-40
2021/04/17 11:08:42;;;;;;;4.57;4.07;;;17.40;60.40;;;;;;5144192;27;20039;-40
2021/04/17 11:11:10;;;;;;;6.10;4.55;;;17.30;60.40;;;;;;5127252;27;20032;-41
2021/04/17 11:13:38;;;;;;;5.35;4.00;;;17.30;60.50;;;;;;5123773;28;20507;-40
2021/04/17 11:16:04;;;;;;;6.15;4.80;;;17.30;60.40;;;;;;5123761;28;20033;-40
2021/04/17 11:18:38;;;;;;;5.00;4.47;;;17.30;60.50;;;;;;5123362;28;20060;-40
2021/04/17 11:21:06;;;;;;;5.35;4.40;;;17.30;60.60;;;;;;5130808;27;20035;-40
2021/04/17 11:23:59;;;;;;;5.22;3.92;;;17.30;60.60;;;;;;5141561;27;20027;-39
2021/04/17 11:26:32;;;;;;;6.55;4.70;;;17.30;60.60;;;;;;5144083;27;20110;-41
2021/04/17 11:29:03;;;;;;;5.25;4.32;;;17.30;60.70;;;;;;5143910;27;20054;-39
2021/04/17 11:31:33;;;;;;;4.13;3.63;;;17.20;60.80;;;;;;5144256;27;20029;-41
2021/04/17 11:34:02;;;;;;;4.47;4.05;;;17.20;60.70;;;;;;5144034;27;20684;-40
2021/04/17 11:36:30;;;;;;;5.95;4.75;;;17.20;60.70;;;;;;5138993;27;20035;-39
2021/04/17 11:38:56;;;;;;;4.47;4.00;;;17.20;60.60;;;;;;5123220;28;20055;-39
2021/04/17 11:41:22;;;;;;;5.13;4.35;;;17.20;60.70;;;;;;5123560;28;20426;-39
2021/04/17 11:43:49;;;;;;;4.93;4.40;;;17.20;60.80;;;;;;5105145;28;20023;-40
2021/04/17 11:46:15;;;;;;;5.63;4.50;;;17.20;60.60;;;;;;5105112;28;20020;-39
2021/04/17 11:48:43;;;;;;;5.18;4.68;;;17.20;60.60;;;;;;5123293;28;20091;-40
2021/04/17 11:51:09;;;;;;;;;;;17.20;60.60;;;;;;5131602;28;20063;-38
2021/04/17 11:53:35;;;;;;;5.05;4.03;;;17.20;60.60;;;;;;5139589;28;19914;-41
2021/04/17 11:56:02;;;;;;;5.95;4.75;;;17.20;60.90;;;;;;5144021;28;20022;-39
2021/04/17 11:58:28;;;;;;;5.40;4.18;;;17.20;60.90;;;;;;5126075;27;20031;-41
2021/04/17 12:00:54;;;;;;;4.82;4.15;;;17.20;61.00;;;;;;5148055;27;20034;-39
2021/04/17 12:03:23;;;;;;;4.70;4.18;;;17.20;61.00;;;;;;5147809;27;20020;-39
2021/04/17 12:05:50;;;;;;;4.97;4.13;;;17.10;60.90;;;;;;5130022;27;20495;-39
2021/04/17 12:08:17;;;;;;;4.85;4.15;;;17.10;60.80;;;;;;5147666;27;20043;-39
2021/04/17 12:10:43;;;;;;;4.53;3.90;;;17.10;60.80;;;;;;5115923;28;20028;-39
2021/04/17 12:13:10;;;;;;;4.87;4.27;;;17.10;60.90;;;;;;5126987;28;20066;-39
2021/04/17 12:15:36;;;;;;;5.85;4.40;;;17.10;60.90;;;;;;5127111;28;20267;-40
2021/04/17 12:18:02;;;;;;;4.40;3.87;;;17.10;60.80;;;;;;5126929;28;20110;-39
2021/04/17 12:20:29;;;;;;;4.50;3.83;;;17.10;61.00;;;;;;5129352;27;20062;-38
2021/04/17 12:22:56;;;;;;;5.47;4.07;;;17.10;60.90;;;;;;5128914;27;20031;-38
2021/04/17 12:25:22;;;;;;;4.35;3.90;;;17.10;60.80;;;;;;5108470;28;20027;-39
2021/04/17 12:27:48;;;;;;;5.57;4.33;;;17.10;60.90;;;;;;5108516;28;20152;-39
2021/04/17 12:30:15;;;;;;;6.45;4.30;;;17.10;60.80;;;;;;5126959;28;20256;-39
2021/04/17 12:32:41;;;;;;;4.57;3.90;;;17.10;60.90;;;;;;5126740;28;20042;-40
2021/04/17 12:35:10;;;;;;;4.63;4.05;;;17.10;60.90;;;;;;5126902;28;20047;-39
2021/04/17 12:37:36;;;;;;;4.80;4.22;;;17.10;60.80;;;;;;5126663;28;20514;-39
2021/04/17 12:40:03;;;;;;;5.00;4.25;;;17.10;60.80;;;;;;5133828;27;20665;-39
2021/04/17 12:42:29;;;;;;;4.83;4.07;;;17.10;60.90;;;;;;5129060;27;20055;-39
2021/04/17 12:44:55;;;;;;;5.65;4.53;;;17.10;61.00;;;;;;5126681;28;20316;-38
2021/04/17 12:47:21;;;;;;;4.95;3.85;;;17.10;61.00;;;;;;5126509;28;20035;-39
2021/04/17 12:49:47;;;;;;;4.97;3.97;;;17.10;61.00;;;;;;5137349;27;20044;-39
2021/04/17 12:52:13;;;;;;;5.63;4.13;;;17.10;60.90;;;;;;5133318;27;20054;-38
2021/04/17 12:54:40;;;;;;;5.05;3.90;;;17.10;60.90;;;;;;5146617;27;20130;-39
2021/04/17 12:57:06;;;;;;;5.00;4.13;;;17.10;61.10;;;;;;5146689;27;20029;-41
2021/04/17 12:59:32;;;;;;;5.30;4.27;;;17.10;61.10;;;;;;5146714;27;20049;-39